Time;durP1;ratioP1;P1;durP2;ratioP2;P2;SDS_P1;SDS_P2;PMS_P1;PMS_P2;Temp;Humidity;BMP_temperature;BMP_pressure;BME280_temperature;BME280_humidity;BME280_pressure;Samples;Min_cycle;Max_cycle;Signal;HPM_P1;HPM_P2
2021/03/26 00:00:34;;;;;;;6.799999;3.85;;;;;;;3.98;48.66406;95638.25;;;;
2021/03/26 00:01:37;;;;;;;6.799999;3.85;;;;;;;3.98;48.66406;95638.25;;;;
2021/03/26 00:02:41;;;;;;;6.799999;3.85;;;;;;;3.98;48.66406;95638.25;;;;
2021/03/26 00:03:42;;;;;;;6.799999;3.85;;;;;;;3.98;48.66406;95638.25;;;;
2021/03/26 00:04:44;;;;;;;6.799999;3.85;;;;;;;3.98;48.66406;95638.25;;;;
2021/03/26 00:05:44;;;;;;;6.799999;3.85;;;;;;;3.98;48.66406;95638.25;;;;
2021/03/26 00:06:47;;;;;;;6.799999;3.85;;;;;;;3.98;48.66406;95638.25;;;;
2021/03/26 00:07:49;;;;;;;6.550002;3.95;;;;;;;3.93;48.74414;95641.08;;;;
2021/03/26 00:08:50;;;;;;;6.550002;3.95;;;;;;;3.93;48.74414;95641.08;;;;
2021/03/26 00:09:50;;;;;;;6.550002;3.95;;;;;;;3.93;48.74414;95641.08;;;;
2021/03/26 00:10:51;;;;;;;6.550002;3.95;;;;;;;3.93;48.74414;95641.08;;;;
2021/03/26 00:11:52;;;;;;;6.550002;3.95;;;;;;;3.93;48.74414;95641.08;;;;
2021/03/26 00:12:56;;;;;;;6.550002;3.95;;;;;;;3.93;48.74414;95641.08;;;;
2021/03/26 00:13:57;;;;;;;6.550002;3.95;;;;;;;3.93;48.74414;95641.08;;;;
2021/03/26 00:14:58;;;;;;;6.550002;3.95;;;;;;;3.93;48.74414;95641.08;;;;
2021/03/26 00:15:58;;;;;;;6.550002;3.95;;;;;;;3.93;48.74414;95641.08;;;;
2021/03/26 00:16:59;;;;;;;6.550002;3.95;;;;;;;3.93;48.74414;95641.08;;;;
2021/03/26 00:18:00;;;;;;;6.550002;3.95;;;;;;;3.93;48.74414;95641.08;;;;
2021/03/26 00:19:01;;;;;;;7.55;4;;;;;;;3.9;49.0791;95631.28;;;;
2021/03/26 00:20:02;;;;;;;7.55;4;;;;;;;3.9;49.0791;95631.28;;;;
2021/03/26 00:21:05;;;;;;;7.55;4;;;;;;;3.9;49.0791;95631.28;;;;
2021/03/26 00:22:07;;;;;;;7.55;4;;;;;;;3.9;49.0791;95631.28;;;;
2021/03/26 00:23:08;;;;;;;7.55;4;;;;;;;3.9;49.0791;95631.28;;;;
2021/03/26 00:24:09;;;;;;;7.55;4;;;;;;;3.9;49.0791;95631.28;;;;
2021/03/26 00:25:10;;;;;;;7.55;4;;;;;;;3.9;49.0791;95631.28;;;;
2021/03/26 00:26:11;;;;;;;7.55;4;;;;;;;3.9;49.0791;95631.28;;;;
2021/03/26 00:27:12;;;;;;;7.55;4;;;;;;;3.9;49.0791;95631.28;;;;
2021/03/26 00:28:12;;;;;;;7.55;4;;;;;;;3.9;49.0791;95631.28;;;;
2021/03/26 00:29:13;;;;;;;9.4;4.8;;;;;;;3.86;49.29785;95644.67;;;;
2021/03/26 00:30:14;;;;;;;9.4;4.8;;;;;;;3.86;49.29785;95644.67;;;;
2021/03/26 00:31:17;;;;;;;9.4;4.8;;;;;;;3.86;49.29785;95644.67;;;;
2021/03/26 00:32:18;;;;;;;9.4;4.8;;;;;;;3.86;49.29785;95644.67;;;;
2021/03/26 00:33:19;;;;;;;9.4;4.8;;;;;;;3.86;49.29785;95644.67;;;;
2021/03/26 00:34:20;;;;;;;9.4;4.8;;;;;;;3.86;49.29785;95644.67;;;;
2021/03/26 00:35:21;;;;;;;9.4;4.8;;;;;;;3.86;49.29785;95644.67;;;;
2021/03/26 00:36:24;;;;;;;9.4;4.8;;;;;;;3.86;49.29785;95644.67;;;;
2021/03/26 00:37:25;;;;;;;9.4;4.8;;;;;;;3.86;49.29785;95644.67;;;;
2021/03/26 00:38:25;;;;;;;9.4;4.8;;;;;;;3.86;49.29785;95644.67;;;;
2021/03/26 00:39:27;;;;;;;6.5;4;;;;;;;3.79;49.77832;95638.42;;;;
2021/03/26 00:40:27;;;;;;;6.5;4;;;;;;;3.79;49.77832;95638.42;;;;
2021/03/26 00:41:28;;;;;;;6.5;4;;;;;;;3.79;49.77832;95638.42;;;;
2021/03/26 00:42:28;;;;;;;6.5;4;;;;;;;3.79;49.77832;95638.42;;;;
2021/03/26 00:43:29;;;;;;;6.5;4;;;;;;;3.79;49.77832;95638.42;;;;
2021/03/26 00:44:30;;;;;;;6.5;4;;;;;;;3.79;49.77832;95638.42;;;;
2021/03/26 00:45:30;;;;;;;6.5;4;;;;;;;3.79;49.77832;95638.42;;;;
2021/03/26 00:46:34;;;;;;;6.5;4;;;;;;;3.79;49.77832;95638.42;;;;
2021/03/26 00:47:36;;;;;;;6.5;4;;;;;;;3.79;49.77832;95638.42;;;;
2021/03/26 00:48:37;;;;;;;6.5;4;;;;;;;3.79;49.77832;95638.42;;;;
2021/03/26 00:49:37;;;;;;;6.5;4;;;;;;;3.79;49.77832;95638.42;;;;
2021/03/26 00:50:38;;;;;;;6.300001;3.95;;;;;;;3.81;49.91797;95639.9;;;;
2021/03/26 00:51:41;;;;;;;6.300001;3.95;;;;;;;3.81;49.91797;95639.9;;;;
2021/03/26 00:52:42;;;;;;;6.300001;3.95;;;;;;;3.81;49.91797;95639.9;;;;
2021/03/26 00:53:43;;;;;;;6.300001;3.95;;;;;;;3.81;49.91797;95639.9;;;;
2021/03/26 00:54:43;;;;;;;6.300001;3.95;;;;;;;3.81;49.91797;95639.9;;;;
2021/03/26 00:55:44;;;;;;;6.300001;3.95;;;;;;;3.81;49.91797;95639.9;;;;
2021/03/26 00:56:45;;;;;;;6.300001;3.95;;;;;;;3.81;49.91797;95639.9;;;;
2021/03/26 00:57:45;;;;;;;6.300001;3.95;;;;;;;3.81;49.91797;95639.9;;;;
2021/03/26 00:58:46;;;;;;;6.300001;3.95;;;;;;;3.81;49.91797;95639.9;;;;
2021/03/26 00:59:46;;;;;;;6.300001;3.95;;;;;;;3.81;49.91797;95639.9;;;;
2021/03/26 01:00:47;;;;;;;7.199999;4.100001;;;;;;;3.71;50.16113;95644.69;;;;
2021/03/26 01:01:48;;;;;;;7.199999;4.100001;;;;;;;3.71;50.16113;95644.69;;;;
2021/03/26 01:02:49;;;;;;;7.199999;4.100001;;;;;;;3.71;50.16113;95644.69;;;;
2021/03/26 01:03:49;;;;;;;7.199999;4.100001;;;;;;;3.71;50.16113;95644.69;;;;
2021/03/26 01:04:50;;;;;;;7.199999;4.100001;;;;;;;3.71;50.16113;95644.69;;;;
2021/03/26 01:05:50;;;;;;;7.199999;4.100001;;;;;;;3.71;50.16113;95644.69;;;;
2021/03/26 01:06:56;;;;;;;7.199999;4.100001;;;;;;;3.71;50.16113;95644.69;;;;
2021/03/26 01:07:56;;;;;;;7.199999;4.100001;;;;;;;3.71;50.16113;95644.69;;;;
2021/03/26 01:08:57;;;;;;;7.199999;4.100001;;;;;;;3.71;50.16113;95644.69;;;;
2021/03/26 01:09:57;;;;;;;7.199999;4.100001;;;;;;;3.71;50.16113;95644.69;;;;
2021/03/26 01:10:58;;;;;;;7.199999;4.100001;;;;;;;3.71;50.16113;95644.69;;;;
2021/03/26 01:12:02;;;;;;;5.8;3.75;;;;;;;3.57;50.47266;95633.09;;;;
2021/03/26 01:13:04;;;;;;;5.8;3.75;;;;;;;3.57;50.47266;95633.09;;;;
2021/03/26 01:14:06;;;;;;;5.8;3.75;;;;;;;3.57;50.47266;95633.09;;;;
2021/03/26 01:15:12;;;;;;;5.8;3.75;;;;;;;3.57;50.47266;95633.09;;;;
2021/03/26 01:16:14;;;;;;;5.8;3.75;;;;;;;3.57;50.47266;95633.09;;;;
2021/03/26 01:17:18;;;;;;;5.8;3.75;;;;;;;3.57;50.47266;95633.09;;;;
2021/03/26 01:18:18;;;;;;;5.8;3.75;;;;;;;3.57;50.47266;95633.09;;;;
2021/03/26 01:19:24;;;;;;;5.8;3.75;;;;;;;3.57;50.47266;95633.09;;;;
2021/03/26 01:20:25;;;;;;;5.8;3.75;;;;;;;3.57;50.47266;95633.09;;;;
2021/03/26 01:21:28;;;;;;;5.8;3.75;;;;;;;3.57;50.47266;95633.09;;;;
2021/03/26 01:22:31;;;;;;;6.500001;3.65;;;;;;;3.47;50.73633;95633.47;;;;
2021/03/26 01:23:32;;;;;;;6.500001;3.65;;;;;;;3.47;50.73633;95633.47;;;;
2021/03/26 01:24:33;;;;;;;6.500001;3.65;;;;;;;3.47;50.73633;95633.47;;;;
2021/03/26 01:25:33;;;;;;;6.500001;3.65;;;;;;;3.47;50.73633;95633.47;;;;
2021/03/26 01:26:37;;;;;;;6.500001;3.65;;;;;;;3.47;50.73633;95633.47;;;;
2021/03/26 01:27:38;;;;;;;6.500001;3.65;;;;;;;3.47;50.73633;95633.47;;;;
2021/03/26 01:28:38;;;;;;;6.500001;3.65;;;;;;;3.47;50.73633;95633.47;;;;
2021/03/26 01:29:40;;;;;;;6.500001;3.65;;;;;;;3.47;50.73633;95633.47;;;;
2021/03/26 01:30:40;;;;;;;6.500001;3.65;;;;;;;3.47;50.73633;95633.47;;;;
2021/03/26 01:31:41;;;;;;;6.500001;3.65;;;;;;;3.47;50.73633;95633.47;;;;
2021/03/26 01:32:41;;;;;;;6.500001;3.65;;;;;;;3.47;50.73633;95633.47;;;;
2021/03/26 01:33:42;;;;;;;7.35;3.9;;;;;;;3.35;50.9668;95634;;;;
2021/03/26 01:34:44;;;;;;;7.35;3.9;;;;;;;3.35;50.9668;95634;;;;
2021/03/26 01:35:45;;;;;;;7.35;3.9;;;;;;;3.35;50.9668;95634;;;;
2021/03/26 01:36:45;;;;;;;7.35;3.9;;;;;;;3.35;50.9668;95634;;;;
2021/03/26 01:37:46;;;;;;;7.35;3.9;;;;;;;3.35;50.9668;95634;;;;
2021/03/26 01:38:47;;;;;;;7.35;3.9;;;;;;;3.35;50.9668;95634;;;;
2021/03/26 01:39:48;;;;;;;7.35;3.9;;;;;;;3.35;50.9668;95634;;;;
2021/03/26 01:40:48;;;;;;;7.35;3.9;;;;;;;3.35;50.9668;95634;;;;
2021/03/26 01:41:53;;;;;;;7.35;3.9;;;;;;;3.35;50.9668;95634;;;;
2021/03/26 01:42:54;;;;;;;7.35;3.9;;;;;;;3.35;50.9668;95634;;;;
2021/03/26 01:44:03;;;;;;;6.4;4;;;;;;;3.31;51.05762;95628.2;;;;
2021/03/26 01:45:05;;;;;;;6.4;4;;;;;;;3.31;51.05762;95628.2;;;;
2021/03/26 01:46:10;;;;;;;6.4;4;;;;;;;3.31;51.05762;95628.2;;;;
2021/03/26 01:47:14;;;;;;;6.4;4;;;;;;;3.31;51.05762;95628.2;;;;
2021/03/26 01:48:14;;;;;;;6.4;4;;;;;;;3.31;51.05762;95628.2;;;;
2021/03/26 01:49:22;;;;;;;6.4;4;;;;;;;3.31;51.05762;95628.2;;;;
2021/03/26 01:50:22;;;;;;;6.4;4;;;;;;;3.31;51.05762;95628.2;;;;
2021/03/26 01:51:27;;;;;;;6.4;4;;;;;;;3.31;51.05762;95628.2;;;;
2021/03/26 01:52:31;;;;;;;6.4;4;;;;;;;3.31;51.05762;95628.2;;;;
2021/03/26 01:53:31;;;;;;;6.4;4;;;;;;;3.31;51.05762;95628.2;;;;
2021/03/26 01:54:32;;;;;;;6.5;3.95;;;;;;;3.17;51.23145;95621.94;;;;
2021/03/26 01:55:32;;;;;;;6.5;3.95;;;;;;;3.17;51.23145;95621.94;;;;
2021/03/26 01:56:37;;;;;;;6.5;3.95;;;;;;;3.17;51.23145;95621.94;;;;
2021/03/26 01:57:38;;;;;;;6.5;3.95;;;;;;;3.17;51.23145;95621.94;;;;
2021/03/26 01:58:38;;;;;;;6.5;3.95;;;;;;;3.17;51.23145;95621.94;;;;
2021/03/26 01:59:40;;;;;;;6.5;3.95;;;;;;;3.17;51.23145;95621.94;;;;
2021/03/26 02:00:40;;;;;;;6.5;3.95;;;;;;;3.17;51.23145;95621.94;;;;
2021/03/26 02:01:44;;;;;;;6.5;3.95;;;;;;;3.17;51.23145;95621.94;;;;
2021/03/26 02:02:47;;;;;;;6.5;3.95;;;;;;;3.17;51.23145;95621.94;;;;
2021/03/26 02:03:47;;;;;;;6.5;3.95;;;;;;;3.17;51.23145;95621.94;;;;
2021/03/26 02:04:52;;;;;;;7.05;4.050001;;;;;;;2.98;51.4834;95622.89;;;;
2021/03/26 02:05:52;;;;;;;7.05;4.050001;;;;;;;2.98;51.4834;95622.89;;;;
2021/03/26 02:06:55;;;;;;;7.05;4.050001;;;;;;;2.98;51.4834;95622.89;;;;
2021/03/26 02:07:56;;;;;;;7.05;4.050001;;;;;;;2.98;51.4834;95622.89;;;;
2021/03/26 02:08:57;;;;;;;7.05;4.050001;;;;;;;2.98;51.4834;95622.89;;;;
2021/03/26 02:10:04;;;;;;;7.05;4.050001;;;;;;;2.98;51.4834;95622.89;;;;
2021/03/26 02:11:06;;;;;;;7.05;4.050001;;;;;;;2.98;51.4834;95622.89;;;;
2021/03/26 02:12:16;;;;;;;7.05;4.050001;;;;;;;2.98;51.4834;95622.89;;;;
2021/03/26 02:13:20;;;;;;;7.05;4.050001;;;;;;;2.98;51.4834;95622.89;;;;
2021/03/26 02:14:24;;;;;;;7.05;4.050001;;;;;;;2.98;51.4834;95622.89;;;;
2021/03/26 02:15:29;;;;;;;6.7;3.85;;;;;;;2.85;51.88086;95612;;;;
2021/03/26 02:16:37;;;;;;;6.7;3.85;;;;;;;2.85;51.88086;95612;;;;
2021/03/26 02:17:39;;;;;;;6.7;3.85;;;;;;;2.85;51.88086;95612;;;;
2021/03/26 02:18:40;;;;;;;6.7;3.85;;;;;;;2.85;51.88086;95612;;;;
2021/03/26 02:19:42;;;;;;;6.7;3.85;;;;;;;2.85;51.88086;95612;;;;
2021/03/26 02:20:47;;;;;;;6.7;3.85;;;;;;;2.85;51.88086;95612;;;;
2021/03/26 02:21:52;;;;;;;6.7;3.85;;;;;;;2.85;51.88086;95612;;;;
2021/03/26 02:22:53;;;;;;;6.7;3.85;;;;;;;2.85;51.88086;95612;;;;
2021/03/26 02:23:56;;;;;;;6.7;3.85;;;;;;;2.85;51.88086;95612;;;;
2021/03/26 02:25:01;;;;;;;6.7;3.85;;;;;;;2.85;51.88086;95612;;;;
2021/03/26 02:26:06;;;;;;;6.1;3.8;;;;;;;2.87;51.97754;95616.66;;;;
2021/03/26 02:27:11;;;;;;;6.1;3.8;;;;;;;2.87;51.97754;95616.66;;;;
2021/03/26 02:28:15;;;;;;;6.1;3.8;;;;;;;2.87;51.97754;95616.66;;;;
2021/03/26 02:29:25;;;;;;;6.1;3.8;;;;;;;2.87;51.97754;95616.66;;;;
2021/03/26 02:30:28;;;;;;;6.1;3.8;;;;;;;2.87;51.97754;95616.66;;;;
2021/03/26 02:31:33;;;;;;;6.1;3.8;;;;;;;2.87;51.97754;95616.66;;;;
2021/03/26 02:32:33;;;;;;;6.1;3.8;;;;;;;2.87;51.97754;95616.66;;;;
2021/03/26 02:33:38;;;;;;;6.1;3.8;;;;;;;2.87;51.97754;95616.66;;;;
2021/03/26 02:34:39;;;;;;;6.1;3.8;;;;;;;2.87;51.97754;95616.66;;;;
2021/03/26 02:36:01;;;;;;;6.1;3.8;;;;;;;2.87;51.97754;95616.66;;;;
2021/03/26 02:38:10;;;;;;;7.7;4.05;;;;;;;2.8;52.20313;95622.8;;;;
2021/03/26 02:39:18;;;;;;;7.7;4.05;;;;;;;2.8;52.20313;95622.8;;;;
2021/03/26 02:40:27;;;;;;;7.7;4.05;;;;;;;2.8;52.20313;95622.8;;;;
2021/03/26 02:41:33;;;;;;;7.7;4.05;;;;;;;2.8;52.20313;95622.8;;;;
2021/03/26 02:42:40;;;;;;;7.7;4.05;;;;;;;2.8;52.20313;95622.8;;;;
2021/03/26 02:43:41;;;;;;;7.7;4.05;;;;;;;2.8;52.20313;95622.8;;;;
2021/03/26 02:44:48;;;;;;;7.7;4.05;;;;;;;2.8;52.20313;95622.8;;;;
2021/03/26 02:45:57;;;;;;;7.7;4.05;;;;;;;2.8;52.20313;95622.8;;;;
2021/03/26 02:47:03;;;;;;;7.7;4.05;;;;;;;2.8;52.20313;95622.8;;;;
2021/03/26 02:48:23;;;;;;;6.350001;3.95;;;;;;;2.8;52.62598;95618.39;;;;
2021/03/26 02:49:35;;;;;;;6.350001;3.95;;;;;;;2.8;52.62598;95618.39;;;;
2021/03/26 02:50:43;;;;;;;6.350001;3.95;;;;;;;2.8;52.62598;95618.39;;;;
2021/03/26 02:51:55;;;;;;;6.350001;3.95;;;;;;;2.8;52.62598;95618.39;;;;
2021/03/26 02:53:03;;;;;;;6.350001;3.95;;;;;;;2.8;52.62598;95618.39;;;;
2021/03/26 02:54:12;;;;;;;6.350001;3.95;;;;;;;2.8;52.62598;95618.39;;;;
2021/03/26 02:55:20;;;;;;;6.350001;3.95;;;;;;;2.8;52.62598;95618.39;;;;
2021/03/26 02:56:27;;;;;;;6.350001;3.95;;;;;;;2.8;52.62598;95618.39;;;;
2021/03/26 02:57:34;;;;;;;6.350001;3.95;;;;;;;2.8;52.62598;95618.39;;;;
2021/03/26 02:58:40;;;;;;;5.900001;3.95;;;;;;;2.83;52.71387;95635.35;;;;
2021/03/26 02:59:46;;;;;;;5.900001;3.95;;;;;;;2.83;52.71387;95635.35;;;;
2021/03/26 03:00:51;;;;;;;5.900001;3.95;;;;;;;2.83;52.71387;95635.35;;;;
2021/03/26 03:01:57;;;;;;;5.900001;3.95;;;;;;;2.83;52.71387;95635.35;;;;
2021/03/26 03:02:58;;;;;;;5.900001;3.95;;;;;;;2.83;52.71387;95635.35;;;;
2021/03/26 03:04:00;;;;;;;5.900001;3.95;;;;;;;2.83;52.71387;95635.35;;;;
2021/03/26 03:05:08;;;;;;;5.900001;3.95;;;;;;;2.83;52.71387;95635.35;;;;
2021/03/26 03:06:13;;;;;;;5.900001;3.95;;;;;;;2.83;52.71387;95635.35;;;;
2021/03/26 03:07:19;;;;;;;5.900001;3.95;;;;;;;2.83;52.71387;95635.35;;;;
2021/03/26 03:08:23;;;;;;;5.900001;3.95;;;;;;;2.83;52.71387;95635.35;;;;
2021/03/26 03:09:28;;;;;;;6.3;3.65;;;;;;;2.88;53.02734;95637.38;;;;
2021/03/26 03:10:32;;;;;;;6.3;3.65;;;;;;;2.88;53.02734;95637.38;;;;
2021/03/26 03:11:37;;;;;;;6.3;3.65;;;;;;;2.88;53.02734;95637.38;;;;
2021/03/26 03:12:43;;;;;;;6.3;3.65;;;;;;;2.88;53.02734;95637.38;;;;
2021/03/26 03:13:45;;;;;;;6.3;3.65;;;;;;;2.88;53.02734;95637.38;;;;
2021/03/26 03:14:51;;;;;;;6.3;3.65;;;;;;;2.88;53.02734;95637.38;;;;
2021/03/26 03:16:00;;;;;;;6.3;3.65;;;;;;;2.88;53.02734;95637.38;;;;
2021/03/26 03:17:05;;;;;;;6.3;3.65;;;;;;;2.88;53.02734;95637.38;;;;
2021/03/26 03:18:15;;;;;;;6.3;3.65;;;;;;;2.88;53.02734;95637.38;;;;
2021/03/26 03:19:22;;;;;;;6.3;3.65;;;;;;;2.88;53.02734;95637.38;;;;
2021/03/26 03:20:34;;;;;;;6.4;3.3;;;;;;;2.95;53.23633;95628.56;;;;
2021/03/26 03:21:41;;;;;;;6.4;3.3;;;;;;;2.95;53.23633;95628.56;;;;
2021/03/26 03:22:49;;;;;;;6.4;3.3;;;;;;;2.95;53.23633;95628.56;;;;
2021/03/26 03:23:57;;;;;;;6.4;3.3;;;;;;;2.95;53.23633;95628.56;;;;
2021/03/26 03:25:05;;;;;;;6.4;3.3;;;;;;;2.95;53.23633;95628.56;;;;
2021/03/26 03:26:10;;;;;;;6.4;3.3;;;;;;;2.95;53.23633;95628.56;;;;
2021/03/26 03:27:23;;;;;;;6.4;3.3;;;;;;;2.95;53.23633;95628.56;;;;
2021/03/26 03:28:34;;;;;;;6.4;3.3;;;;;;;2.95;53.23633;95628.56;;;;
2021/03/26 03:29:44;;;;;;;6.4;3.3;;;;;;;2.95;53.23633;95628.56;;;;
2021/03/26 03:30:53;;;;;;;4.3;3.05;;;;;;;2.87;53.18359;95628.66;;;;
2021/03/26 03:32:05;;;;;;;4.3;3.05;;;;;;;2.87;53.18359;95628.66;;;;
2021/03/26 03:33:13;;;;;;;4.3;3.05;;;;;;;2.87;53.18359;95628.66;;;;
2021/03/26 03:34:23;;;;;;;4.3;3.05;;;;;;;2.87;53.18359;95628.66;;;;
2021/03/26 03:35:30;;;;;;;4.3;3.05;;;;;;;2.87;53.18359;95628.66;;;;
2021/03/26 03:36:37;;;;;;;4.3;3.05;;;;;;;2.87;53.18359;95628.66;;;;
2021/03/26 03:37:48;;;;;;;4.3;3.05;;;;;;;2.87;53.18359;95628.66;;;;
2021/03/26 03:39:07;;;;;;;4.3;3.05;;;;;;;2.87;53.18359;95628.66;;;;
2021/03/26 03:40:13;;;;;;;4.3;3.05;;;;;;;2.87;53.18359;95628.66;;;;
2021/03/26 03:41:22;;;;;;;5.3;3.4;;;;;;;2.7;53.26953;95626.2;;;;
2021/03/26 03:42:32;;;;;;;5.3;3.4;;;;;;;2.7;53.26953;95626.2;;;;
2021/03/26 03:43:41;;;;;;;5.3;3.4;;;;;;;2.7;53.26953;95626.2;;;;
2021/03/26 03:44:46;;;;;;;5.3;3.4;;;;;;;2.7;53.26953;95626.2;;;;
2021/03/26 03:45:52;;;;;;;5.3;3.4;;;;;;;2.7;53.26953;95626.2;;;;
2021/03/26 03:47:00;;;;;;;5.3;3.4;;;;;;;2.7;53.26953;95626.2;;;;
2021/03/26 03:48:07;;;;;;;5.3;3.4;;;;;;;2.7;53.26953;95626.2;;;;
2021/03/26 03:49:14;;;;;;;5.3;3.4;;;;;;;2.7;53.26953;95626.2;;;;
2021/03/26 03:50:23;;;;;;;5.3;3.4;;;;;;;2.7;53.26953;95626.2;;;;
2021/03/26 03:51:30;;;;;;;5.3;3.45;;;;;;;2.48;53.88477;95620;;;;
2021/03/26 03:52:37;;;;;;;5.3;3.45;;;;;;;2.48;53.88477;95620;;;;
2021/03/26 03:53:45;;;;;;;5.3;3.45;;;;;;;2.48;53.88477;95620;;;;
2021/03/26 03:54:51;;;;;;;5.3;3.45;;;;;;;2.48;53.88477;95620;;;;
2021/03/26 03:55:58;;;;;;;5.3;3.45;;;;;;;2.48;53.88477;95620;;;;
2021/03/26 03:57:04;;;;;;;5.3;3.45;;;;;;;2.48;53.88477;95620;;;;
2021/03/26 03:58:08;;;;;;;5.3;3.45;;;;;;;2.48;53.88477;95620;;;;
2021/03/26 03:59:17;;;;;;;5.3;3.45;;;;;;;2.48;53.88477;95620;;;;
2021/03/26 04:00:23;;;;;;;5.3;3.45;;;;;;;2.48;53.88477;95620;;;;
2021/03/26 04:01:27;;;;;;;5.3;3.45;;;;;;;2.48;53.88477;95620;;;;
2021/03/26 04:02:36;;;;;;;6.3;3.4;;;;;;;2.49;54.21289;95613.22;;;;
2021/03/26 04:03:46;;;;;;;6.3;3.4;;;;;;;2.49;54.21289;95613.22;;;;
2021/03/26 04:04:50;;;;;;;6.3;3.4;;;;;;;2.49;54.21289;95613.22;;;;
2021/03/26 04:05:58;;;;;;;6.3;3.4;;;;;;;2.49;54.21289;95613.22;;;;
2021/03/26 04:07:04;;;;;;;6.3;3.4;;;;;;;2.49;54.21289;95613.22;;;;
2021/03/26 04:08:08;;;;;;;6.3;3.4;;;;;;;2.49;54.21289;95613.22;;;;
2021/03/26 04:09:14;;;;;;;6.3;3.4;;;;;;;2.49;54.21289;95613.22;;;;
2021/03/26 04:10:19;;;;;;;6.3;3.4;;;;;;;2.49;54.21289;95613.22;;;;
2021/03/26 04:11:21;;;;;;;6.3;3.4;;;;;;;2.49;54.21289;95613.22;;;;
2021/03/26 04:12:26;;;;;;;6.3;3.4;;;;;;;2.49;54.21289;95613.22;;;;
2021/03/26 04:13:32;;;;;;;6.6;3.6;;;;;;;2.49;54.12109;95605.16;;;;
2021/03/26 04:14:39;;;;;;;6.6;3.6;;;;;;;2.49;54.12109;95605.16;;;;
2021/03/26 04:15:44;;;;;;;6.6;3.6;;;;;;;2.49;54.12109;95605.16;;;;
2021/03/26 04:16:52;;;;;;;6.6;3.6;;;;;;;2.49;54.12109;95605.16;;;;
2021/03/26 04:18:00;;;;;;;6.6;3.6;;;;;;;2.49;54.12109;95605.16;;;;
2021/03/26 04:19:08;;;;;;;6.6;3.6;;;;;;;2.49;54.12109;95605.16;;;;
2021/03/26 04:20:14;;;;;;;6.6;3.6;;;;;;;2.49;54.12109;95605.16;;;;
2021/03/26 04:21:21;;;;;;;6.6;3.6;;;;;;;2.49;54.12109;95605.16;;;;
2021/03/26 04:22:24;;;;;;;6.6;3.6;;;;;;;2.49;54.12109;95605.16;;;;
2021/03/26 04:23:29;;;;;;;6.6;3.6;;;;;;;2.49;54.12109;95605.16;;;;
2021/03/26 04:24:34;;;;;;;6.2;3.45;;;;;;;2.35;54.13379;95614.42;;;;
2021/03/26 04:25:42;;;;;;;6.2;3.45;;;;;;;2.35;54.13379;95614.42;;;;
2021/03/26 04:26:49;;;;;;;6.2;3.45;;;;;;;2.35;54.13379;95614.42;;;;
2021/03/26 04:27:55;;;;;;;6.2;3.45;;;;;;;2.35;54.13379;95614.42;;;;
2021/03/26 04:29:03;;;;;;;6.2;3.45;;;;;;;2.35;54.13379;95614.42;;;;
2021/03/26 04:30:08;;;;;;;6.2;3.45;;;;;;;2.35;54.13379;95614.42;;;;
2021/03/26 04:31:13;;;;;;;6.2;3.45;;;;;;;2.35;54.13379;95614.42;;;;
2021/03/26 04:32:20;;;;;;;6.2;3.45;;;;;;;2.35;54.13379;95614.42;;;;
2021/03/26 04:33:22;;;;;;;6.2;3.45;;;;;;;2.35;54.13379;95614.42;;;;
2021/03/26 04:34:23;;;;;;;5.1;3;;;;;;;2.17;54.375;95620.04;;;;
2021/03/26 04:35:25;;;;;;;5.1;3;;;;;;;2.17;54.375;95620.04;;;;
2021/03/26 04:36:27;;;;;;;5.1;3;;;;;;;2.17;54.375;95620.04;;;;
2021/03/26 04:37:40;;;;;;;5.1;3;;;;;;;2.17;54.375;95620.04;;;;
2021/03/26 04:38:49;;;;;;;5.1;3;;;;;;;2.17;54.375;95620.04;;;;
2021/03/26 04:39:57;;;;;;;5.1;3;;;;;;;2.17;54.375;95620.04;;;;
2021/03/26 04:41:04;;;;;;;5.1;3;;;;;;;2.17;54.375;95620.04;;;;
2021/03/26 04:42:12;;;;;;;5.1;3;;;;;;;2.17;54.375;95620.04;;;;
2021/03/26 04:43:20;;;;;;;5.1;3;;;;;;;2.17;54.375;95620.04;;;;
2021/03/26 04:44:27;;;;;;;5.1;3;;;;;;;2.17;54.375;95620.04;;;;
2021/03/26 04:45:36;;;;;;;4.1;2.7;;;;;;;2.06;54.67773;95619.11;;;;
2021/03/26 04:46:46;;;;;;;4.1;2.7;;;;;;;2.06;54.67773;95619.11;;;;
2021/03/26 04:47:55;;;;;;;4.1;2.7;;;;;;;2.06;54.67773;95619.11;;;;
2021/03/26 04:49:03;;;;;;;4.1;2.7;;;;;;;2.06;54.67773;95619.11;;;;
2021/03/26 04:50:09;;;;;;;4.1;2.7;;;;;;;2.06;54.67773;95619.11;;;;
2021/03/26 04:51:17;;;;;;;4.1;2.7;;;;;;;2.06;54.67773;95619.11;;;;
2021/03/26 04:52:25;;;;;;;4.1;2.7;;;;;;;2.06;54.67773;95619.11;;;;
2021/03/26 04:53:33;;;;;;;4.1;2.7;;;;;;;2.06;54.67773;95619.11;;;;
2021/03/26 04:54:42;;;;;;;4.1;2.7;;;;;;;2.06;54.67773;95619.11;;;;
2021/03/26 04:55:48;;;;;;;4.3;2.65;;;;;;;2.03;54.58887;95612.81;;;;
2021/03/26 04:56:53;;;;;;;4.3;2.65;;;;;;;2.03;54.58887;95612.81;;;;
2021/03/26 04:57:58;;;;;;;4.3;2.65;;;;;;;2.03;54.58887;95612.81;;;;
2021/03/26 04:59:03;;;;;;;4.3;2.65;;;;;;;2.03;54.58887;95612.81;;;;
2021/03/26 05:00:06;;;;;;;4.3;2.65;;;;;;;2.03;54.58887;95612.81;;;;
2021/03/26 05:01:12;;;;;;;4.3;2.65;;;;;;;2.03;54.58887;95612.81;;;;
2021/03/26 05:02:16;;;;;;;4.3;2.65;;;;;;;2.03;54.58887;95612.81;;;;
2021/03/26 05:03:20;;;;;;;4.3;2.65;;;;;;;2.03;54.58887;95612.81;;;;
2021/03/26 05:04:25;;;;;;;4.3;2.65;;;;;;;2.03;54.58887;95612.81;;;;
2021/03/26 05:05:32;;;;;;;4.3;2.65;;;;;;;2.03;54.58887;95612.81;;;;
2021/03/26 05:06:39;;;;;;;4.45;2.8;;;;;;;1.94;54.59863;95612.53;;;;
2021/03/26 05:07:43;;;;;;;4.45;2.8;;;;;;;1.94;54.59863;95612.53;;;;
2021/03/26 05:08:47;;;;;;;4.45;2.8;;;;;;;1.94;54.59863;95612.53;;;;
2021/03/26 05:09:55;;;;;;;4.45;2.8;;;;;;;1.94;54.59863;95612.53;;;;
2021/03/26 05:10:59;;;;;;;4.45;2.8;;;;;;;1.94;54.59863;95612.53;;;;
2021/03/26 05:12:02;;;;;;;4.45;2.8;;;;;;;1.94;54.59863;95612.53;;;;
2021/03/26 05:13:08;;;;;;;4.45;2.8;;;;;;;1.94;54.59863;95612.53;;;;
2021/03/26 05:14:15;;;;;;;4.45;2.8;;;;;;;1.94;54.59863;95612.53;;;;
2021/03/26 05:15:22;;;;;;;4.45;2.8;;;;;;;1.94;54.59863;95612.53;;;;
2021/03/26 05:16:26;;;;;;;4.45;2.8;;;;;;;1.94;54.59863;95612.53;;;;
2021/03/26 05:17:35;;;;;;;3.2;2.6;;;;;;;1.84;54.69141;95622.55;;;;
2021/03/26 05:18:41;;;;;;;3.2;2.6;;;;;;;1.84;54.69141;95622.55;;;;
2021/03/26 05:19:47;;;;;;;3.2;2.6;;;;;;;1.84;54.69141;95622.55;;;;
2021/03/26 05:20:55;;;;;;;3.2;2.6;;;;;;;1.84;54.69141;95622.55;;;;
2021/03/26 05:22:00;;;;;;;3.2;2.6;;;;;;;1.84;54.69141;95622.55;;;;
2021/03/26 05:23:20;;;;;;;3.2;2.6;;;;;;;1.84;54.69141;95622.55;;;;
2021/03/26 05:24:25;;;;;;;3.2;2.6;;;;;;;1.84;54.69141;95622.55;;;;
2021/03/26 05:25:33;;;;;;;3.2;2.6;;;;;;;1.84;54.69141;95622.55;;;;
2021/03/26 05:26:38;;;;;;;3.2;2.6;;;;;;;1.84;54.69141;95622.55;;;;
2021/03/26 05:27:38;;;;;;;5.45;3.15;;;;;;;1.81;54.75098;95619.83;;;;
2021/03/26 05:28:39;;;;;;;5.45;3.15;;;;;;;1.81;54.75098;95619.83;;;;
2021/03/26 05:29:43;;;;;;;5.45;3.15;;;;;;;1.81;54.75098;95619.83;;;;
2021/03/26 05:30:44;;;;;;;5.45;3.15;;;;;;;1.81;54.75098;95619.83;;;;
2021/03/26 05:31:46;;;;;;;5.45;3.15;;;;;;;1.81;54.75098;95619.83;;;;
2021/03/26 05:32:57;;;;;;;5.45;3.15;;;;;;;1.81;54.75098;95619.83;;;;
2021/03/26 05:34:02;;;;;;;5.45;3.15;;;;;;;1.81;54.75098;95619.83;;;;
2021/03/26 05:35:08;;;;;;;5.45;3.15;;;;;;;1.81;54.75098;95619.83;;;;
2021/03/26 05:36:21;;;;;;;5.45;3.15;;;;;;;1.81;54.75098;95619.83;;;;
2021/03/26 05:37:32;;;;;;;5.45;3.15;;;;;;;1.81;54.75098;95619.83;;;;
2021/03/26 05:38:37;;;;;;;6.05;3.55;;;;;;;1.85;54.83984;95618.91;;;;
2021/03/26 05:39:43;;;;;;;6.05;3.55;;;;;;;1.85;54.83984;95618.91;;;;
2021/03/26 05:40:48;;;;;;;6.05;3.55;;;;;;;1.85;54.83984;95618.91;;;;
2021/03/26 05:46:10;;;;;;;6.05;3.55;;;;;;;1.85;54.83984;95618.91;;;;
2021/03/26 05:47:22;;;;;;;6.05;3.55;;;;;;;1.85;54.83984;95618.91;;;;
2021/03/26 05:48:36;;;;;;;6.05;3.55;;;;;;;1.85;54.83984;95618.91;;;;
2021/03/26 05:49:45;;;;;;;5.75;3.25;;;;;;;1.98;54.8877;95616.06;;;;
2021/03/26 05:50:58;;;;;;;5.75;3.25;;;;;;;1.98;54.8877;95616.06;;;;
2021/03/26 05:52:13;;;;;;;5.75;3.25;;;;;;;1.98;54.8877;95616.06;;;;
2021/03/26 05:53:36;;;;;;;5.75;3.25;;;;;;;1.98;54.8877;95616.06;;;;
2021/03/26 05:54:44;;;;;;;5.75;3.25;;;;;;;1.98;54.8877;95616.06;;;;
2021/03/26 05:56:05;;;;;;;5.75;3.25;;;;;;;1.98;54.8877;95616.06;;;;
2021/03/26 05:57:20;;;;;;;5.75;3.25;;;;;;;1.98;54.8877;95616.06;;;;
2021/03/26 05:58:28;;;;;;;5.75;3.25;;;;;;;1.98;54.8877;95616.06;;;;
2021/03/26 05:59:43;;;;;;;7.3;3.4;;;;;;;2.18;54.93555;95620.85;;;;
2021/03/26 06:01:00;;;;;;;7.3;3.4;;;;;;;2.18;54.93555;95620.85;;;;
2021/03/26 06:02:15;;;;;;;7.3;3.4;;;;;;;2.18;54.93555;95620.85;;;;
2021/03/26 06:03:46;;;;;;;7.3;3.4;;;;;;;2.18;54.93555;95620.85;;;;
2021/03/26 06:05:05;;;;;;;7.3;3.4;;;;;;;2.18;54.93555;95620.85;;;;
2021/03/26 06:07:02;;;;;;;7.3;3.4;;;;;;;2.18;54.93555;95620.85;;;;
2021/03/26 06:09:25;;;;;;;7.3;3.4;;;;;;;2.18;54.93555;95620.85;;;;
2021/03/26 06:10:51;;;;;;;7.349999;3.7;;;;;;;2.54;55.16211;95613.44;;;;
2021/03/26 06:12:19;;;;;;;7.349999;3.7;;;;;;;2.54;55.16211;95613.44;;;;
2021/03/26 06:13:39;;;;;;;7.349999;3.7;;;;;;;2.54;55.16211;95613.44;;;;
2021/03/26 06:14:58;;;;;;;7.349999;3.7;;;;;;;2.54;55.16211;95613.44;;;;
2021/03/26 06:16:23;;;;;;;7.349999;3.7;;;;;;;2.54;55.16211;95613.44;;;;
2021/03/26 06:17:30;;;;;;;7.349999;3.7;;;;;;;2.54;55.16211;95613.44;;;;
2021/03/26 06:19:01;;;;;;;7.349999;3.7;;;;;;;2.54;55.16211;95613.44;;;;
2021/03/26 06:21:27;;;;;;;4.7;3.05;;;;;;;3.07;54.98535;95617.38;;;;
2021/03/26 06:22:38;;;;;;;4.7;3.05;;;;;;;3.07;54.98535;95617.38;;;;
2021/03/26 06:24:12;;;;;;;4.7;3.05;;;;;;;3.07;54.98535;95617.38;;;;
2021/03/26 06:25:43;;;;;;;4.7;3.05;;;;;;;3.07;54.98535;95617.38;;;;
2021/03/26 06:26:58;;;;;;;4.7;3.05;;;;;;;3.07;54.98535;95617.38;;;;
2021/03/26 06:28:11;;;;;;;4.7;3.05;;;;;;;3.07;54.98535;95617.38;;;;
2021/03/26 06:29:27;;;;;;;4.7;3.05;;;;;;;3.07;54.98535;95617.38;;;;